sensor_id;sensor_type;location;lat;lon;timestamp;P1;durP1;ratioP1;P2;durP2;ratioP2
24739;SDS011;45234;48.148;17.128;2023-10-13T00:01:55;15.25;;;9.65;;
24739;SDS011;45234;48.148;17.128;2023-10-13T00:04:25;14.82;;;9.60;;
24739;SDS011;45234;48.148;17.128;2023-10-13T00:06:53;16.52;;;9.60;;
24739;SDS011;45234;48.148;17.128;2023-10-13T00:09:24;17.02;;;8.85;;
24739;SDS011;45234;48.148;17.128;2023-10-13T00:11:58;15.63;;;8.90;;
24739;SDS011;45234;48.148;17.128;2023-10-13T00:14:25;14.05;;;9.77;;
24739;SDS011;45234;48.148;17.128;2023-10-13T00:17:00;17.55;;;9.75;;
24739;SDS011;45234;48.148;17.128;2023-10-13T00:19:32;12.88;;;9.50;;
24739;SDS011;45234;48.148;17.128;2023-10-13T00:22:06;14.10;;;9.18;;
24739;SDS011;45234;48.148;17.128;2023-10-13T00:24:37;17.33;;;10.52;;
24739;SDS011;45234;48.148;17.128;2023-10-13T00:27:09;15.95;;;8.57;;
24739;SDS011;45234;48.148;17.128;2023-10-13T00:29:51;15.85;;;9.77;;
24739;SDS011;45234;48.148;17.128;2023-10-13T00:32:37;17.67;;;9.52;;
24739;SDS011;45234;48.148;17.128;2023-10-13T00:35:06;17.23;;;9.90;;
24739;SDS011;45234;48.148;17.128;2023-10-13T00:37:39;14.95;;;9.85;;
24739;SDS011;45234;48.148;17.128;2023-10-13T00:40:10;16.13;;;10.25;;
24739;SDS011;45234;48.148;17.128;2023-10-13T00:42:58;19.13;;;9.43;;
24739;SDS011;45234;48.148;17.128;2023-10-13T00:45:45;14.70;;;8.68;;
24739;SDS011;45234;48.148;17.128;2023-10-13T00:51:04;13.15;;;8.40;;
24739;SDS011;45234;48.148;17.128;2023-10-13T00:53:39;14.90;;;9.05;;
24739;SDS011;45234;48.148;17.128;2023-10-13T00:56:07;15.20;;;9.10;;
24739;SDS011;45234;48.148;17.128;2023-10-13T00:58:44;13.65;;;8.98;;
24739;SDS011;45234;48.148;17.128;2023-10-13T01:01:12;16.23;;;9.45;;
24739;SDS011;45234;48.148;17.128;2023-10-13T01:03:51;13.05;;;8.50;;
24739;SDS011;45234;48.148;17.128;2023-10-13T01:06:25;18.98;;;8.98;;
24739;SDS011;45234;48.148;17.128;2023-10-13T01:09:04;15.13;;;9.07;;
24739;SDS011;45234;48.148;17.128;2023-10-13T01:11:40;13.07;;;8.02;;
24739;SDS011;45234;48.148;17.128;2023-10-13T01:14:10;14.43;;;8.52;;
24739;SDS011;45234;48.148;17.128;2023-10-13T01:16:38;10.43;;;7.45;;
24739;SDS011;45234;48.148;17.128;2023-10-13T01:19:15;15.23;;;8.52;;
24739;SDS011;45234;48.148;17.128;2023-10-13T01:21:52;14.77;;;8.27;;
24739;SDS011;45234;48.148;17.128;2023-10-13T01:24:30;11.98;;;9.00;;
24739;SDS011;45234;48.148;17.128;2023-10-13T01:27:03;13.70;;;7.93;;
24739;SDS011;45234;48.148;17.128;2023-10-13T01:29:44;14.88;;;7.95;;
24739;SDS011;45234;48.148;17.128;2023-10-13T01:32:24;11.77;;;8.32;;
24739;SDS011;45234;48.148;17.128;2023-10-13T01:34:52;12.15;;;7.25;;
24739;SDS011;45234;48.148;17.128;2023-10-13T01:37:23;13.15;;;7.97;;
24739;SDS011;45234;48.148;17.128;2023-10-13T01:39:50;15.77;;;9.23;;
24739;SDS011;45234;48.148;17.128;2023-10-13T01:42:17;13.73;;;7.88;;
24739;SDS011;45234;48.148;17.128;2023-10-13T01:44:48;11.32;;;8.15;;
24739;SDS011;45234;48.148;17.128;2023-10-13T01:47:15;11.40;;;8.10;;
24739;SDS011;45234;48.148;17.128;2023-10-13T01:49:43;10.52;;;7.65;;
24739;SDS011;45234;48.148;17.128;2023-10-13T01:52:14;14.77;;;7.65;;
24739;SDS011;45234;48.148;17.128;2023-10-13T01:54:46;9.40;;;7.68;;
24739;SDS011;45234;48.148;17.128;2023-10-13T01:57:16;12.00;;;7.88;;
24739;SDS011;45234;48.148;17.128;2023-10-13T01:59:44;17.05;;;8.45;;
24739;SDS011;45234;48.148;17.128;2023-10-13T02:02:16;12.07;;;8.80;;
24739;SDS011;45234;48.148;17.128;2023-10-13T02:04:56;16.85;;;8.80;;
24739;SDS011;45234;48.148;17.128;2023-10-13T02:07:29;17.33;;;9.30;;
24739;SDS011;45234;48.148;17.128;2023-10-13T02:09:57;15.65;;;9.32;;
24739;SDS011;45234;48.148;17.128;2023-10-13T02:12:24;14.45;;;8.98;;
24739;SDS011;45234;48.148;17.128;2023-10-13T02:15:13;14.00;;;10.00;;
24739;SDS011;45234;48.148;17.128;2023-10-13T02:17:53;13.35;;;9.15;;
24739;SDS011;45234;48.148;17.128;2023-10-13T02:20:21;13.68;;;9.27;;
24739;SDS011;45234;48.148;17.128;2023-10-13T02:22:53;14.63;;;8.88;;
24739;SDS011;45234;48.148;17.128;2023-10-13T02:25:20;14.65;;;8.95;;
24739;SDS011;45234;48.148;17.128;2023-10-13T02:28:06;14.93;;;9.10;;
24739;SDS011;45234;48.148;17.128;2023-10-13T02:30:47;11.35;;;8.80;;
24739;SDS011;45234;48.148;17.128;2023-10-13T02:33:17;11.23;;;8.32;;
24739;SDS011;45234;48.148;17.128;2023-10-13T02:35:47;17.08;;;9.25;;
24739;SDS011;45234;48.148;17.128;2023-10-13T02:38:23;15.60;;;9.98;;
24739;SDS011;45234;48.148;17.128;2023-10-13T02:41:12;16.73;;;9.73;;
24739;SDS011;45234;48.148;17.128;2023-10-13T02:44:00;15.68;;;8.32;;
24739;SDS011;45234;48.148;17.128;2023-10-13T02:46:31;15.45;;;8.98;;
24739;SDS011;45234;48.148;17.128;2023-10-13T02:49:02;14.32;;;9.18;;
24739;SDS011;45234;48.148;17.128;2023-10-13T02:51:37;14.50;;;9.00;;
24739;SDS011;45234;48.148;17.128;2023-10-13T02:54:08;16.80;;;9.82;;
24739;SDS011;45234;48.148;17.128;2023-10-13T02:56:45;19.27;;;11.20;;
24739;SDS011;45234;48.148;17.128;2023-10-13T02:59:23;16.90;;;10.45;;
24739;SDS011;45234;48.148;17.128;2023-10-13T03:02:07;16.80;;;10.18;;
24739;SDS011;45234;48.148;17.128;2023-10-13T03:04:47;13.15;;;10.45;;
24739;SDS011;45234;48.148;17.128;2023-10-13T03:07:15;18.17;;;11.27;;
24739;SDS011;45234;48.148;17.128;2023-10-13T03:09:49;18.25;;;11.48;;
24739;SDS011;45234;48.148;17.128;2023-10-13T03:12:20;17.63;;;10.15;;
24739;SDS011;45234;48.148;17.128;2023-10-13T03:14:50;16.83;;;11.73;;
24739;SDS011;45234;48.148;17.128;2023-10-13T03:17:21;15.45;;;11.52;;
24739;SDS011;45234;48.148;17.128;2023-10-13T03:19:59;19.83;;;11.55;;
24739;SDS011;45234;48.148;17.128;2023-10-13T03:22:28;19.33;;;12.05;;
24739;SDS011;45234;48.148;17.128;2023-10-13T03:24:59;18.50;;;11.43;;
24739;SDS011;45234;48.148;17.128;2023-10-13T03:27:31;20.08;;;10.85;;
24739;SDS011;45234;48.148;17.128;2023-10-13T03:30:16;15.98;;;9.75;;
24739;SDS011;45234;48.148;17.128;2023-10-13T03:32:44;14.45;;;10.00;;
24739;SDS011;45234;48.148;17.128;2023-10-13T03:35:20;17.73;;;10.52;;
24739;SDS011;45234;48.148;17.128;2023-10-13T03:37:51;18.27;;;10.15;;
24739;SDS011;45234;48.148;17.128;2023-10-13T03:40:19;14.82;;;9.43;;
24739;SDS011;45234;48.148;17.128;2023-10-13T03:42:50;16.77;;;9.82;;
24739;SDS011;45234;48.148;17.128;2023-10-13T03:45:24;17.60;;;9.70;;
24739;SDS011;45234;48.148;17.128;2023-10-13T03:47:52;19.63;;;9.95;;
24739;SDS011;45234;48.148;17.128;2023-10-13T03:50:19;13.75;;;9.93;;
24739;SDS011;45234;48.148;17.128;2023-10-13T03:52:56;17.48;;;10.07;;
24739;SDS011;45234;48.148;17.128;2023-10-13T03:55:24;16.83;;;10.23;;
24739;SDS011;45234;48.148;17.128;2023-10-13T03:57:53;21.67;;;11.18;;
24739;SDS011;45234;48.148;17.128;2023-10-13T04:02:32;15.63;;;10.88;;
24739;SDS011;45234;48.148;17.128;2023-10-13T04:05:00;13.95;;;11.27;;
24739;SDS011;45234;48.148;17.128;2023-10-13T04:07:35;21.33;;;11.75;;
24739;SDS011;45234;48.148;17.128;2023-10-13T04:10:06;25.15;;;12.70;;
24739;SDS011;45234;48.148;17.128;2023-10-13T04:12:56;20.58;;;13.40;;
24739;SDS011;45234;48.148;17.128;2023-10-13T04:15:42;18.38;;;11.20;;
24739;SDS011;45234;48.148;17.128;2023-10-13T04:18:28;19.05;;;12.95;;
24739;SDS011;45234;48.148;17.128;2023-10-13T04:21:16;20.50;;;12.07;;
24739;SDS011;45234;48.148;17.128;2023-10-13T04:24:01;23.42;;;12.48;;
24739;SDS011;45234;48.148;17.128;2023-10-13T04:26:49;22.77;;;12.77;;
24739;SDS011;45234;48.148;17.128;2023-10-13T04:29:37;22.92;;;13.23;;
24739;SDS011;45234;48.148;17.128;2023-10-13T04:32:16;20.98;;;12.77;;
24739;SDS011;45234;48.148;17.128;2023-10-13T04:34:59;20.40;;;12.20;;
24739;SDS011;45234;48.148;17.128;2023-10-13T04:37:36;15.98;;;8.45;;
24739;SDS011;45234;48.148;17.128;2023-10-13T04:40:21;16.35;;;7.43;;
24739;SDS011;45234;48.148;17.128;2023-10-13T04:42:51;10.27;;;5.82;;
24739;SDS011;45234;48.148;17.128;2023-10-13T04:45:25;9.82;;;4.97;;
24739;SDS011;45234;48.148;17.128;2023-10-13T04:47:58;10.93;;;5.10;;
24739;SDS011;45234;48.148;17.128;2023-10-13T04:50:44;10.20;;;5.78;;
24739;SDS011;45234;48.148;17.128;2023-10-13T04:53:15;10.85;;;5.68;;
24739;SDS011;45234;48.148;17.128;2023-10-13T04:56:00;12.07;;;5.70;;
24739;SDS011;45234;48.148;17.128;2023-10-13T04:58:28;13.40;;;5.30;;
24739;SDS011;45234;48.148;17.128;2023-10-13T05:01:05;11.93;;;6.43;;
24739;SDS011;45234;48.148;17.128;2023-10-13T05:03:52;11.73;;;5.53;;
24739;SDS011;45234;48.148;17.128;2023-10-13T05:06:19;13.15;;;5.45;;
24739;SDS011;45234;48.148;17.128;2023-10-13T05:09:05;15.15;;;5.78;;
24739;SDS011;45234;48.148;17.128;2023-10-13T05:11:50;11.68;;;6.05;;
24739;SDS011;45234;48.148;17.128;2023-10-13T05:14:43;14.35;;;5.47;;
24739;SDS011;45234;48.148;17.128;2023-10-13T05:17:31;11.05;;;5.88;;
24739;SDS011;45234;48.148;17.128;2023-10-13T05:20:17;14.15;;;5.90;;
24739;SDS011;45234;48.148;17.128;2023-10-13T05:23:02;12.52;;;5.70;;
24739;SDS011;45234;48.148;17.128;2023-10-13T05:25:48;13.88;;;6.55;;
24739;SDS011;45234;48.148;17.128;2023-10-13T05:28:34;16.27;;;6.47;;
24739;SDS011;45234;48.148;17.128;2023-10-13T05:31:20;10.43;;;5.57;;
24739;SDS011;45234;48.148;17.128;2023-10-13T05:34:05;14.00;;;6.53;;
24739;SDS011;45234;48.148;17.128;2023-10-13T05:36:51;12.80;;;7.03;;
24739;SDS011;45234;48.148;17.128;2023-10-13T05:39:36;14.23;;;6.60;;
24739;SDS011;45234;48.148;17.128;2023-10-13T05:42:22;13.63;;;6.13;;
24739;SDS011;45234;48.148;17.128;2023-10-13T05:45:07;16.67;;;6.38;;
24739;SDS011;45234;48.148;17.128;2023-10-13T05:47:43;13.18;;;6.88;;
24739;SDS011;45234;48.148;17.128;2023-10-13T05:50:16;12.70;;;6.10;;
24739;SDS011;45234;48.148;17.128;2023-10-13T05:52:47;14.30;;;6.57;;
24739;SDS011;45234;48.148;17.128;2023-10-13T05:55:30;12.00;;;6.30;;
24739;SDS011;45234;48.148;17.128;2023-10-13T05:58:15;14.48;;;7.05;;
24739;SDS011;45234;48.148;17.128;2023-10-13T06:01:01;15.80;;;7.32;;
24739;SDS011;45234;48.148;17.128;2023-10-13T06:03:47;12.63;;;6.22;;
24739;SDS011;45234;48.148;17.128;2023-10-13T06:06:32;12.02;;;6.28;;
24739;SDS011;45234;48.148;17.128;2023-10-13T06:09:18;13.60;;;6.82;;
24739;SDS011;45234;48.148;17.128;2023-10-13T06:12:07;14.35;;;6.72;;
24739;SDS011;45234;48.148;17.128;2023-10-13T06:14:53;13.88;;;7.05;;
24739;SDS011;45234;48.148;17.128;2023-10-13T06:17:39;16.30;;;7.03;;
24739;SDS011;45234;48.148;17.128;2023-10-13T06:20:24;15.20;;;7.13;;
24739;SDS011;45234;48.148;17.128;2023-10-13T06:23:09;13.57;;;7.22;;
24739;SDS011;45234;48.148;17.128;2023-10-13T06:25:57;12.02;;;6.70;;
24739;SDS011;45234;48.148;17.128;2023-10-13T06:28:42;17.05;;;7.00;;
24739;SDS011;45234;48.148;17.128;2023-10-13T06:31:12;15.10;;;6.45;;
24739;SDS011;45234;48.148;17.128;2023-10-13T06:33:49;13.68;;;6.95;;
24739;SDS011;45234;48.148;17.128;2023-10-13T06:36:19;12.73;;;6.00;;
24739;SDS011;45234;48.148;17.128;2023-10-13T06:38:47;14.43;;;6.72;;
24739;SDS011;45234;48.148;17.128;2023-10-13T06:41:22;12.35;;;6.78;;
24739;SDS011;45234;48.148;17.128;2023-10-13T06:44:06;13.20;;;6.30;;
24739;SDS011;45234;48.148;17.128;2023-10-13T06:46:40;10.98;;;6.70;;
24739;SDS011;45234;48.148;17.128;2023-10-13T06:49:10;11.18;;;7.00;;
24739;SDS011;45234;48.148;17.128;2023-10-13T06:51:39;16.73;;;7.28;;
24739;SDS011;45234;48.148;17.128;2023-10-13T06:54:06;16.60;;;7.80;;
24739;SDS011;45234;48.148;17.128;2023-10-13T06:56:37;16.65;;;8.05;;
24739;SDS011;45234;48.148;17.128;2023-10-13T06:59:10;14.48;;;8.18;;
24739;SDS011;45234;48.148;17.128;2023-10-13T07:01:40;17.15;;;8.55;;
24739;SDS011;45234;48.148;17.128;2023-10-13T07:04:08;20.73;;;7.38;;
24739;SDS011;45234;48.148;17.128;2023-10-13T07:06:43;17.63;;;8.32;;
24739;SDS011;45234;48.148;17.128;2023-10-13T07:09:17;15.52;;;7.57;;
24739;SDS011;45234;48.148;17.128;2023-10-13T07:12:05;14.32;;;7.60;;
24739;SDS011;45234;48.148;17.128;2023-10-13T07:14:45;13.95;;;7.63;;
24739;SDS011;45234;48.148;17.128;2023-10-13T07:19:52;18.02;;;8.40;;
24739;SDS011;45234;48.148;17.128;2023-10-13T07:22:22;21.17;;;9.32;;
24739;SDS011;45234;48.148;17.128;2023-10-13T07:24:50;19.70;;;9.68;;
24739;SDS011;45234;48.148;17.128;2023-10-13T07:27:21;20.63;;;9.57;;
24739;SDS011;45234;48.148;17.128;2023-10-13T07:29:53;19.98;;;10.77;;
24739;SDS011;45234;48.148;17.128;2023-10-13T07:32:53;14.10;;;9.10;;
24739;SDS011;45234;48.148;17.128;2023-10-13T07:35:26;17.73;;;9.65;;
24739;SDS011;45234;48.148;17.128;2023-10-13T07:37:57;16.05;;;9.23;;
24739;SDS011;45234;48.148;17.128;2023-10-13T07:40:26;12.85;;;9.10;;
24739;SDS011;45234;48.148;17.128;2023-10-13T07:42:54;16.13;;;9.50;;
24739;SDS011;45234;48.148;17.128;2023-10-13T07:45:31;21.63;;;10.48;;
24739;SDS011;45234;48.148;17.128;2023-10-13T07:48:04;20.52;;;8.82;;
24739;SDS011;45234;48.148;17.128;2023-10-13T07:50:40;18.13;;;10.02;;
24739;SDS011;45234;48.148;17.128;2023-10-13T07:53:07;15.73;;;9.55;;
24739;SDS011;45234;48.148;17.128;2023-10-13T07:55:50;20.07;;;11.43;;
24739;SDS011;45234;48.148;17.128;2023-10-13T07:58:47;22.35;;;10.45;;
24739;SDS011;45234;48.148;17.128;2023-10-13T08:01:30;19.52;;;11.98;;
24739;SDS011;45234;48.148;17.128;2023-10-13T08:03:58;22.85;;;12.93;;
24739;SDS011;45234;48.148;17.128;2023-10-13T08:06:38;21.30;;;10.82;;
24739;SDS011;45234;48.148;17.128;2023-10-13T08:09:10;22.20;;;12.43;;
24739;SDS011;45234;48.148;17.128;2023-10-13T08:11:56;23.88;;;11.40;;
24739;SDS011;45234;48.148;17.128;2023-10-13T08:14:23;21.88;;;11.57;;
24739;SDS011;45234;48.148;17.128;2023-10-13T08:17:04;22.50;;;10.38;;
24739;SDS011;45234;48.148;17.128;2023-10-13T08:19:37;30.83;;;11.80;;
24739;SDS011;45234;48.148;17.128;2023-10-13T08:22:12;23.23;;;11.75;;
24739;SDS011;45234;48.148;17.128;2023-10-13T08:24:46;25.58;;;11.20;;
24739;SDS011;45234;48.148;17.128;2023-10-13T08:27:23;20.33;;;11.13;;
24739;SDS011;45234;48.148;17.128;2023-10-13T08:29:59;18.65;;;10.95;;
24739;SDS011;45234;48.148;17.128;2023-10-13T08:32:31;20.08;;;10.85;;
24739;SDS011;45234;48.148;17.128;2023-10-13T08:34:59;17.70;;;10.95;;
24739;SDS011;45234;48.148;17.128;2023-10-13T08:37:30;15.80;;;10.50;;
24739;SDS011;45234;48.148;17.128;2023-10-13T08:40:02;16.93;;;10.67;;
24739;SDS011;45234;48.148;17.128;2023-10-13T08:42:34;20.47;;;11.20;;
24739;SDS011;45234;48.148;17.128;2023-10-13T08:47:49;14.93;;;10.20;;
24739;SDS011;45234;48.148;17.128;2023-10-13T08:50:20;23.90;;;11.30;;
24739;SDS011;45234;48.148;17.128;2023-10-13T08:53:17;14.63;;;10.35;;
24739;SDS011;45234;48.148;17.128;2023-10-13T08:56:02;20.98;;;11.82;;
24739;SDS011;45234;48.148;17.128;2023-10-13T08:58:52;24.73;;;11.90;;
24739;SDS011;45234;48.148;17.128;2023-10-13T09:01:24;20.30;;;11.52;;
24739;SDS011;45234;48.148;17.128;2023-10-13T09:04:04;21.92;;;10.60;;
24739;SDS011;45234;48.148;17.128;2023-10-13T09:09:45;18.45;;;10.43;;
24739;SDS011;45234;48.148;17.128;2023-10-13T09:12:12;17.35;;;10.88;;
24739;SDS011;45234;48.148;17.128;2023-10-13T09:15:03;20.45;;;10.13;;
24739;SDS011;45234;48.148;17.128;2023-10-13T09:17:41;19.00;;;10.88;;
24739;SDS011;45234;48.148;17.128;2023-10-13T09:20:42;19.88;;;10.32;;
24739;SDS011;45234;48.148;17.128;2023-10-13T09:25:53;25.10;;;10.70;;
24739;SDS011;45234;48.148;17.128;2023-10-13T09:28:35;17.15;;;9.88;;
24739;SDS011;45234;48.148;17.128;2023-10-13T09:31:05;17.88;;;9.60;;
24739;SDS011;45234;48.148;17.128;2023-10-13T09:33:33;24.52;;;12.15;;
24739;SDS011;45234;48.148;17.128;2023-10-13T09:36:16;17.25;;;11.00;;
24739;SDS011;45234;48.148;17.128;2023-10-13T09:38:43;18.17;;;11.02;;
24739;SDS011;45234;48.148;17.128;2023-10-13T09:41:35;16.85;;;10.77;;
24739;SDS011;45234;48.148;17.128;2023-10-13T09:44:05;15.03;;;9.77;;
24739;SDS011;45234;48.148;17.128;2023-10-13T09:46:37;22.20;;;10.95;;
24739;SDS011;45234;48.148;17.128;2023-10-13T09:49:11;14.20;;;10.48;;
24739;SDS011;45234;48.148;17.128;2023-10-13T09:51:48;17.20;;;10.50;;
24739;SDS011;45234;48.148;17.128;2023-10-13T09:54:40;19.60;;;10.00;;
24739;SDS011;45234;48.148;17.128;2023-10-13T09:57:13;15.88;;;9.60;;
24739;SDS011;45234;48.148;17.128;2023-10-13T10:02:18;20.42;;;10.43;;
24739;SDS011;45234;48.148;17.128;2023-10-13T10:04:53;19.10;;;9.95;;
24739;SDS011;45234;48.148;17.128;2023-10-13T10:07:35;16.75;;;8.63;;
24739;SDS011;45234;48.148;17.128;2023-10-13T10:10:02;20.17;;;8.75;;
24739;SDS011;45234;48.148;17.128;2023-10-13T10:12:50;17.10;;;9.35;;
24739;SDS011;45234;48.148;17.128;2023-10-13T10:15:36;12.70;;;8.85;;
24739;SDS011;45234;48.148;17.128;2023-10-13T10:18:19;14.20;;;8.73;;
24739;SDS011;45234;48.148;17.128;2023-10-13T10:21:02;17.67;;;8.95;;
24739;SDS011;45234;48.148;17.128;2023-10-13T10:23:33;21.42;;;8.80;;
24739;SDS011;45234;48.148;17.128;2023-10-13T10:26:15;20.98;;;9.50;;
24739;SDS011;45234;48.148;17.128;2023-10-13T10:28:48;17.63;;;7.82;;
24739;SDS011;45234;48.148;17.128;2023-10-13T10:31:15;26.08;;;9.02;;
24739;SDS011;45234;48.148;17.128;2023-10-13T10:33:46;12.07;;;7.47;;
24739;SDS011;45234;48.148;17.128;2023-10-13T10:36:30;14.30;;;7.57;;
24739;SDS011;45234;48.148;17.128;2023-10-13T10:38:57;14.30;;;7.78;;
24739;SDS011;45234;48.148;17.128;2023-10-13T10:41:25;19.85;;;8.38;;
24739;SDS011;45234;48.148;17.128;2023-10-13T10:47:15;14.38;;;8.65;;
24739;SDS011;45234;48.148;17.128;2023-10-13T10:49:46;18.70;;;8.05;;
24739;SDS011;45234;48.148;17.128;2023-10-13T10:52:16;12.18;;;8.05;;
24739;SDS011;45234;48.148;17.128;2023-10-13T10:57:23;13.90;;;7.75;;
24739;SDS011;45234;48.148;17.128;2023-10-13T10:59:58;11.73;;;7.95;;
24739;SDS011;45234;48.148;17.128;2023-10-13T11:02:38;16.17;;;7.63;;
24739;SDS011;45234;48.148;17.128;2023-10-13T11:05:06;15.95;;;8.68;;
24739;SDS011;45234;48.148;17.128;2023-10-13T11:07:36;19.00;;;8.32;;
24739;SDS011;45234;48.148;17.128;2023-10-13T11:10:11;10.77;;;6.72;;
24739;SDS011;45234;48.148;17.128;2023-10-13T11:12:59;20.65;;;8.57;;
24739;SDS011;45234;48.148;17.128;2023-10-13T11:15:49;21.13;;;8.10;;
24739;SDS011;45234;48.148;17.128;2023-10-13T11:18:16;21.35;;;7.55;;
24739;SDS011;45234;48.148;17.128;2023-10-13T11:20:47;12.77;;;6.65;;
24739;SDS011;45234;48.148;17.128;2023-10-13T11:25:58;14.35;;;6.57;;
24739;SDS011;45234;48.148;17.128;2023-10-13T11:28:25;18.52;;;7.40;;
24739;SDS011;45234;48.148;17.128;2023-10-13T11:30:58;21.47;;;8.13;;
24739;SDS011;45234;48.148;17.128;2023-10-13T11:33:26;12.95;;;7.15;;
24739;SDS011;45234;48.148;17.128;2023-10-13T11:35:55;17.23;;;6.82;;
24739;SDS011;45234;48.148;17.128;2023-10-13T11:38:23;15.95;;;7.22;;
24739;SDS011;45234;48.148;17.128;2023-10-13T11:40:53;15.27;;;6.20;;
24739;SDS011;45234;48.148;17.128;2023-10-13T11:43:33;13.55;;;6.40;;
24739;SDS011;45234;48.148;17.128;2023-10-13T11:46:20;15.82;;;6.53;;
24739;SDS011;45234;48.148;17.128;2023-10-13T11:49:06;14.15;;;6.90;;
24739;SDS011;45234;48.148;17.128;2023-10-13T11:51:45;16.70;;;7.38;;
24739;SDS011;45234;48.148;17.128;2023-10-13T11:54:16;11.80;;;6.40;;
24739;SDS011;45234;48.148;17.128;2023-10-13T11:56:45;12.73;;;6.32;;
24739;SDS011;45234;48.148;17.128;2023-10-13T11:59:14;13.82;;;6.18;;
24739;SDS011;45234;48.148;17.128;2023-10-13T12:01:45;16.13;;;6.18;;
24739;SDS011;45234;48.148;17.128;2023-10-13T12:04:31;13.13;;;5.93;;
24739;SDS011;45234;48.148;17.128;2023-10-13T12:07:07;12.73;;;6.47;;
24739;SDS011;45234;48.148;17.128;2023-10-13T12:09:43;11.18;;;6.25;;
24739;SDS011;45234;48.148;17.128;2023-10-13T12:12:23;13.82;;;6.93;;
24739;SDS011;45234;48.148;17.128;2023-10-13T12:14:51;14.68;;;6.88;;
24739;SDS011;45234;48.148;17.128;2023-10-13T12:17:23;11.18;;;6.72;;
24739;SDS011;45234;48.148;17.128;2023-10-13T12:19:58;21.73;;;7.05;;
24739;SDS011;45234;48.148;17.128;2023-10-13T12:22:25;11.90;;;6.57;;
24739;SDS011;45234;48.148;17.128;2023-10-13T12:25:01;18.80;;;6.25;;
24739;SDS011;45234;48.148;17.128;2023-10-13T12:27:31;13.05;;;6.07;;
24739;SDS011;45234;48.148;17.128;2023-10-13T12:30:11;12.20;;;7.13;;
24739;SDS011;45234;48.148;17.128;2023-10-13T12:32:40;17.00;;;7.53;;
24739;SDS011;45234;48.148;17.128;2023-10-13T12:35:10;17.10;;;7.55;;
24739;SDS011;45234;48.148;17.128;2023-10-13T12:37:37;18.35;;;8.48;;
24739;SDS011;45234;48.148;17.128;2023-10-13T12:40:15;15.13;;;7.53;;
24739;SDS011;45234;48.148;17.128;2023-10-13T12:43:19;18.77;;;8.68;;
24739;SDS011;45234;48.148;17.128;2023-10-13T12:46:05;22.02;;;7.68;;
24739;SDS011;45234;48.148;17.128;2023-10-13T12:48:50;18.33;;;8.30;;
24739;SDS011;45234;48.148;17.128;2023-10-13T12:51:40;17.83;;;7.65;;
24739;SDS011;45234;48.148;17.128;2023-10-13T12:54:16;19.33;;;7.95;;
24739;SDS011;45234;48.148;17.128;2023-10-13T12:56:49;13.68;;;7.72;;
24739;SDS011;45234;48.148;17.128;2023-10-13T12:59:23;15.27;;;7.13;;
24739;SDS011;45234;48.148;17.128;2023-10-13T13:01:52;19.17;;;6.47;;
24739;SDS011;45234;48.148;17.128;2023-10-13T13:04:22;12.80;;;7.25;;
24739;SDS011;45234;48.148;17.128;2023-10-13T13:06:58;13.45;;;6.40;;
24739;SDS011;45234;48.148;17.128;2023-10-13T13:09:25;12.93;;;5.55;;
24739;SDS011;45234;48.148;17.128;2023-10-13T13:11:53;15.45;;;6.22;;
24739;SDS011;45234;48.148;17.128;2023-10-13T13:14:24;18.55;;;5.65;;
24739;SDS011;45234;48.148;17.128;2023-10-13T13:16:56;13.68;;;5.90;;
24739;SDS011;45234;48.148;17.128;2023-10-13T13:19:35;16.50;;;6.05;;
24739;SDS011;45234;48.148;17.128;2023-10-13T13:22:06;10.52;;;5.90;;
24739;SDS011;45234;48.148;17.128;2023-10-13T13:24:44;12.65;;;6.53;;
24739;SDS011;45234;48.148;17.128;2023-10-13T13:27:11;16.02;;;6.28;;
24739;SDS011;45234;48.148;17.128;2023-10-13T13:29:43;19.80;;;6.60;;
24739;SDS011;45234;48.148;17.128;2023-10-13T13:32:11;16.10;;;6.55;;
24739;SDS011;45234;48.148;17.128;2023-10-13T13:34:51;10.52;;;6.47;;
24739;SDS011;45234;48.148;17.128;2023-10-13T13:37:30;15.80;;;6.72;;
24739;SDS011;45234;48.148;17.128;2023-10-13T13:39:57;14.13;;;5.72;;
24739;SDS011;45234;48.148;17.128;2023-10-13T13:42:39;14.13;;;6.47;;
24739;SDS011;45234;48.148;17.128;2023-10-13T13:45:16;18.52;;;6.47;;
24739;SDS011;45234;48.148;17.128;2023-10-13T13:47:48;12.30;;;6.50;;
24739;SDS011;45234;48.148;17.128;2023-10-13T13:50:22;11.70;;;6.05;;
24739;SDS011;45234;48.148;17.128;2023-10-13T13:52:53;15.98;;;5.85;;
24739;SDS011;45234;48.148;17.128;2023-10-13T13:55:24;11.93;;;5.72;;
24739;SDS011;45234;48.148;17.128;2023-10-13T13:57:55;14.85;;;5.95;;
24739;SDS011;45234;48.148;17.128;2023-10-13T14:00:22;18.17;;;6.05;;
24739;SDS011;45234;48.148;17.128;2023-10-13T14:03:06;13.20;;;5.93;;
24739;SDS011;45234;48.148;17.128;2023-10-13T14:06:00;12.02;;;5.78;;
24739;SDS011;45234;48.148;17.128;2023-10-13T14:08:29;14.90;;;5.88;;
24739;SDS011;45234;48.148;17.128;2023-10-13T14:10:56;13.70;;;6.00;;
24739;SDS011;45234;48.148;17.128;2023-10-13T14:13:43;18.65;;;6.18;;
24739;SDS011;45234;48.148;17.128;2023-10-13T14:16:18;11.25;;;5.03;;
24739;SDS011;45234;48.148;17.128;2023-10-13T14:18:47;11.57;;;5.22;;
24739;SDS011;45234;48.148;17.128;2023-10-13T14:21:17;9.73;;;4.70;;
24739;SDS011;45234;48.148;17.128;2023-10-13T14:23:51;12.32;;;5.35;;
24739;SDS011;45234;48.148;17.128;2023-10-13T14:26:19;14.65;;;6.07;;
24739;SDS011;45234;48.148;17.128;2023-10-13T14:28:50;19.25;;;6.13;;
24739;SDS011;45234;48.148;17.128;2023-10-13T14:31:28;14.43;;;5.25;;
24739;SDS011;45234;48.148;17.128;2023-10-13T14:33:56;13.93;;;6.25;;
24739;SDS011;45234;48.148;17.128;2023-10-13T14:36:24;12.48;;;5.00;;
24739;SDS011;45234;48.148;17.128;2023-10-13T14:38:56;13.60;;;5.43;;
24739;SDS011;45234;48.148;17.128;2023-10-13T14:41:23;11.43;;;5.45;;
24739;SDS011;45234;48.148;17.128;2023-10-13T14:43:50;13.52;;;5.00;;
24739;SDS011;45234;48.148;17.128;2023-10-13T14:46:18;10.18;;;5.50;;
24739;SDS011;45234;48.148;17.128;2023-10-13T14:48:52;14.55;;;5.15;;
24739;SDS011;45234;48.148;17.128;2023-10-13T14:51:19;12.43;;;5.63;;
24739;SDS011;45234;48.148;17.128;2023-10-13T14:53:47;15.90;;;6.15;;
24739;SDS011;45234;48.148;17.128;2023-10-13T14:56:18;15.07;;;5.55;;
24739;SDS011;45234;48.148;17.128;2023-10-13T14:58:45;15.88;;;6.38;;
24739;SDS011;45234;48.148;17.128;2023-10-13T15:01:16;10.65;;;5.53;;
24739;SDS011;45234;48.148;17.128;2023-10-13T15:03:45;15.73;;;6.03;;
24739;SDS011;45234;48.148;17.128;2023-10-13T15:06:17;14.75;;;6.10;;
24739;SDS011;45234;48.148;17.128;2023-10-13T15:08:46;18.88;;;5.75;;
24739;SDS011;45234;48.148;17.128;2023-10-13T15:11:15;14.23;;;5.15;;
24739;SDS011;45234;48.148;17.128;2023-10-13T15:13:44;15.57;;;5.68;;
24739;SDS011;45234;48.148;17.128;2023-10-13T15:16:15;12.25;;;5.28;;
24739;SDS011;45234;48.148;17.128;2023-10-13T15:18:46;15.80;;;5.80;;
24739;SDS011;45234;48.148;17.128;2023-10-13T15:21:18;14.57;;;5.35;;
24739;SDS011;45234;48.148;17.128;2023-10-13T15:23:53;11.82;;;5.47;;
24739;SDS011;45234;48.148;17.128;2023-10-13T15:26:25;11.30;;;5.18;;
24739;SDS011;45234;48.148;17.128;2023-10-13T15:28:52;12.85;;;6.53;;
24739;SDS011;45234;48.148;17.128;2023-10-13T15:31:21;16.67;;;5.72;;
24739;SDS011;45234;48.148;17.128;2023-10-13T15:33:53;15.88;;;6.20;;